createdAt,value
2019-04-30T00:00:06.155Z,22.49
2019-04-30T00:01:07.441Z,22.49
2019-04-30T00:02:05.829Z,22.49
2019-04-30T00:03:06.610Z,22.47
2019-04-30T00:04:05.736Z,22.47
2019-04-30T00:05:05.497Z,22.47
2019-04-30T00:06:07.235Z,22.47
2019-04-30T00:07:05.675Z,22.47
2019-04-30T00:08:05.841Z,22.47
2019-04-30T00:09:05.363Z,22.47
2019-04-30T00:10:06.131Z,22.47
2019-04-30T00:11:05.383Z,22.46
2019-04-30T00:12:05.619Z,22.47
2019-04-30T00:13:06.109Z,22.49
2019-04-30T00:14:05.648Z,22.49
2019-04-30T00:15:06.202Z,22.47
2019-04-30T00:16:05.319Z,22.47
2019-04-30T00:17:06.350Z,22.46
2019-04-30T00:18:05.505Z,22.46
2019-04-30T00:19:06.187Z,22.46
2019-04-30T00:20:05.298Z,22.47
2019-04-30T00:21:05.517Z,22.47
2019-04-30T00:22:05.730Z,22.47
2019-04-30T00:23:05.194Z,22.47
2019-04-30T00:24:06.221Z,22.46
2019-04-30T00:25:05.562Z,22.45
2019-04-30T00:26:09.983Z,22.45
2019-04-30T00:27:05.530Z,22.47
2019-04-30T00:28:08.479Z,22.46
2019-04-30T00:29:05.109Z,22.47
2019-04-30T00:30:07.696Z,22.46
2019-04-30T00:31:05.504Z,22.45
2019-04-30T00:32:07.785Z,22.45
2019-04-30T00:33:05.814Z,22.46
2019-04-30T00:34:05.077Z,22.47
2019-04-30T00:35:04.465Z,22.46
2019-04-30T00:36:04.981Z,22.46
2019-04-30T00:37:07.260Z,22.46
2019-04-30T00:38:05.418Z,22.46
2019-04-30T00:39:07.118Z,22.47
2019-04-30T00:40:05.621Z,22.46
2019-04-30T00:41:06.839Z,22.46
2019-04-30T00:42:05.380Z,22.46
2019-04-30T00:43:07.942Z,22.47
2019-04-30T00:44:05.376Z,22.46
2019-04-30T00:45:09.495Z,22.47
2019-04-30T00:46:05.333Z,22.46
2019-04-30T00:47:07.879Z,22.47
2019-04-30T00:48:06.004Z,22.47
2019-04-30T00:49:09.801Z,22.47
2019-04-30T00:50:05.338Z,22.46
2019-04-30T00:51:08.923Z,22.46
2019-04-30T00:52:05.286Z,22.45
2019-04-30T00:53:05.957Z,22.46
2019-04-30T00:54:05.709Z,22.46
2019-04-30T00:55:05.556Z,22.46
2019-04-30T00:56:05.687Z,22.47
2019-04-30T00:57:07.507Z,22.46
2019-04-30T00:58:05.911Z,22.45
2019-04-30T00:59:07.096Z,22.45
2019-04-30T01:00:05.215Z,22.47
2019-04-30T01:01:08.007Z,22.46
2019-04-30T01:02:05.958Z,22.46
2019-04-30T01:03:05.918Z,22.47
2019-04-30T01:04:05.039Z,22.46
2019-04-30T01:05:06.041Z,22.46
2019-04-30T01:06:05.398Z,22.45
2019-04-30T01:07:05.213Z,22.46
2019-04-30T01:08:04.984Z,22.45
2019-04-30T01:09:05.561Z,22.45
2019-04-30T01:10:05.108Z,22.43
2019-04-30T01:11:09.428Z,22.46
2019-04-30T01:12:05.514Z,22.45
2019-04-30T01:13:08.008Z,22.46
2019-04-30T01:14:05.043Z,22.46
2019-04-30T01:15:06.417Z,22.45
2019-04-30T01:16:05.015Z,22.43
2019-04-30T01:17:08.136Z,22.45
2019-04-30T01:18:04.995Z,22.45
2019-04-30T01:19:05.729Z,22.45
2019-04-30T01:20:04.985Z,22.47
2019-04-30T01:21:07.851Z,22.46
2019-04-30T01:22:04.944Z,22.46
2019-04-30T01:23:08.016Z,22.43
2019-04-30T01:24:04.924Z,22.46
2019-04-30T01:25:08.918Z,22.46
2019-04-30T01:26:04.937Z,22.46
2019-04-30T01:27:06.713Z,22.45
2019-04-30T01:28:04.879Z,22.45
2019-04-30T01:29:03.870Z,22.45
2019-04-30T01:30:03.854Z,22.47
2019-04-30T01:31:03.873Z,22.46
2019-04-30T01:32:03.834Z,22.45
2019-04-30T01:33:03.824Z,22.46
2019-04-30T01:34:05.146Z,22.46
2019-04-30T01:35:04.808Z,22.46
2019-04-30T01:36:04.064Z,22.46
2019-04-30T01:37:03.784Z,22.45
2019-04-30T01:38:04.080Z,22.46
2019-04-30T01:39:03.759Z,22.47
2019-04-30T01:40:10.524Z,22.46
2019-04-30T01:41:04.763Z,22.46
2019-04-30T01:42:07.899Z,22.47
2019-04-30T01:43:04.717Z,22.47
2019-04-30T01:44:03.910Z,22.46
2019-04-30T01:45:03.705Z,22.46
2019-04-30T01:46:12.187Z,22.46
2019-04-30T01:47:04.679Z,22.47
2019-04-30T01:48:08.618Z,22.46
2019-04-30T01:49:04.661Z,22.46
2019-04-30T01:50:04.975Z,22.47
2019-04-30T01:51:03.639Z,22.46
2019-04-30T01:52:03.645Z,22.45
2019-04-30T01:53:04.835Z,22.45
2019-04-30T01:54:03.610Z,22.45
2019-04-30T01:55:03.595Z,22.45
2019-04-30T01:56:03.583Z,22.46
2019-04-30T01:57:03.593Z,22.46
2019-04-30T01:58:03.567Z,22.46
2019-04-30T01:59:03.547Z,22.46
2019-04-30T02:00:03.549Z,22.45
2019-04-30T02:01:03.527Z,22.43
2019-04-30T02:02:03.538Z,22.45
2019-04-30T02:03:03.502Z,22.46
2019-04-30T02:04:03.494Z,22.45
2019-04-30T02:05:03.504Z,22.43
2019-04-30T02:06:03.478Z,22.45
2019-04-30T02:07:03.489Z,22.46
2019-04-30T02:08:03.450Z,22.45
2019-04-30T02:09:03.439Z,22.46
2019-04-30T02:10:03.423Z,22.46
2019-04-30T02:11:03.424Z,22.46
2019-04-30T02:12:03.427Z,22.45
2019-04-30T02:13:03.403Z,22.45
2019-04-30T02:14:03.392Z,22.43
2019-04-30T02:15:03.405Z,22.45
2019-04-30T02:16:03.360Z,22.46
2019-04-30T02:17:03.370Z,22.43
2019-04-30T02:18:03.352Z,22.43
2019-04-30T02:19:03.337Z,22.46
2019-04-30T02:20:03.316Z,22.43
2019-04-30T02:21:03.320Z,22.43
2019-04-30T02:22:03.323Z,22.45
2019-04-30T02:23:03.299Z,22.43
2019-04-30T02:24:03.289Z,22.43
2019-04-30T02:25:03.263Z,22.43
2019-04-30T02:26:03.249Z,22.45
2019-04-30T02:27:03.249Z,22.45
2019-04-30T02:28:03.254Z,22.45
2019-04-30T02:29:03.228Z,22.43
2019-04-30T02:30:03.250Z,22.43
2019-04-30T02:31:03.199Z,22.45
2019-04-30T02:32:03.205Z,22.43
2019-04-30T02:33:03.211Z,22.42
2019-04-30T02:34:03.817Z,22.43
2019-04-30T02:35:03.359Z,22.45
2019-04-30T02:36:03.820Z,22.43
2019-04-30T02:37:03.147Z,22.45
2019-04-30T02:38:03.177Z,22.45
2019-04-30T02:39:03.123Z,22.46
2019-04-30T02:40:03.115Z,22.45
2019-04-30T02:41:03.133Z,22.43
2019-04-30T02:42:03.090Z,22.43
2019-04-30T02:43:03.128Z,22.43
2019-04-30T02:44:03.075Z,22.42
2019-04-30T02:45:03.701Z,22.43
2019-04-30T02:46:03.052Z,22.42
2019-04-30T02:47:03.044Z,22.43
2019-04-30T02:48:03.029Z,22.45
2019-04-30T02:49:03.051Z,22.43
2019-04-30T02:50:14.094Z,22.45
2019-04-30T02:51:03.994Z,22.43
2019-04-30T02:52:03.009Z,22.42
2019-04-30T02:53:02.979Z,22.42
2019-04-30T02:54:02.989Z,22.43
2019-04-30T02:55:02.990Z,22.42
2019-04-30T02:56:02.941Z,22.42
2019-04-30T02:57:02.929Z,22.42
2019-04-30T02:58:02.924Z,22.43
2019-04-30T02:59:03.871Z,22.42
2019-04-30T03:00:02.931Z,22.40
2019-04-30T03:01:02.904Z,22.40
2019-04-30T03:02:02.878Z,22.42
2019-04-30T03:03:02.857Z,22.42
2019-04-30T03:04:02.876Z,22.42
2019-04-30T03:05:02.840Z,22.42
2019-04-30T03:06:02.824Z,22.42
2019-04-30T03:07:02.815Z,22.42
2019-04-30T03:08:02.811Z,22.43
2019-04-30T03:09:02.828Z,22.43
2019-04-30T03:10:02.801Z,22.43
2019-04-30T03:11:02.773Z,22.42
2019-04-30T03:12:02.768Z,22.42
2019-04-30T03:13:02.749Z,22.40
2019-04-30T03:14:02.764Z,22.40
2019-04-30T03:15:02.791Z,22.40
2019-04-30T03:16:02.720Z,22.40
2019-04-30T03:17:02.702Z,22.39
2019-04-30T03:18:02.695Z,22.40
2019-04-30T03:19:02.704Z,22.42
2019-04-30T03:20:03.570Z,22.40
2019-04-30T03:21:02.669Z,22.40
2019-04-30T03:22:02.673Z,22.40
2019-04-30T03:23:02.652Z,22.40
2019-04-30T03:24:02.664Z,22.42
2019-04-30T03:25:02.622Z,22.40
2019-04-30T03:26:02.603Z,22.40
2019-04-30T03:27:02.595Z,22.40
2019-04-30T03:28:02.584Z,22.42
2019-04-30T03:29:02.581Z,22.40
2019-04-30T03:30:02.682Z,22.40
2019-04-30T03:31:04.503Z,22.39
2019-04-30T03:32:03.657Z,22.40
2019-04-30T03:33:03.171Z,22.42
2019-04-30T03:34:02.566Z,22.40
2019-04-30T03:35:03.393Z,22.40
2019-04-30T03:36:02.836Z,22.42
2019-04-30T03:37:02.492Z,22.40
2019-04-30T03:38:02.476Z,22.40
2019-04-30T03:39:02.494Z,22.40
2019-04-30T03:40:02.494Z,22.39
2019-04-30T03:41:02.450Z,22.40
2019-04-30T03:42:02.436Z,22.40
2019-04-30T03:43:03.098Z,22.42
2019-04-30T03:44:17.119Z,22.42
2019-04-30T03:45:03.431Z,22.39
2019-04-30T03:46:02.686Z,22.39
2019-04-30T03:47:02.382Z,22.37
2019-04-30T03:48:02.370Z,22.39
2019-04-30T03:49:02.355Z,22.39
2019-04-30T03:50:02.395Z,22.37
2019-04-30T03:51:02.356Z,22.39
2019-04-30T03:52:02.332Z,22.39
2019-04-30T03:53:02.312Z,22.37
2019-04-30T03:54:02.304Z,22.39
2019-04-30T03:55:02.953Z,22.39
2019-04-30T03:56:02.323Z,22.39
2019-04-30T03:57:02.299Z,22.39
2019-04-30T03:58:02.266Z,22.39
2019-04-30T03:59:02.295Z,22.39
2019-04-30T04:00:02.272Z,22.40
2019-04-30T04:01:02.235Z,22.39
2019-04-30T04:02:02.225Z,22.37
2019-04-30T04:03:02.208Z,22.37
2019-04-30T04:04:02.230Z,22.37
2019-04-30T04:05:03.106Z,22.36
2019-04-30T04:06:02.172Z,22.36
2019-04-30T04:07:02.170Z,22.36
2019-04-30T04:08:02.165Z,22.36
2019-04-30T04:09:02.138Z,22.37
2019-04-30T04:10:02.154Z,22.37
2019-04-30T04:11:03.103Z,22.37
2019-04-30T04:12:02.106Z,22.37
2019-04-30T04:13:02.110Z,22.39
2019-04-30T04:14:02.101Z,22.39
2019-04-30T04:15:03.936Z,22.39
2019-04-30T04:16:02.098Z,22.37
2019-04-30T04:17:02.064Z,22.39
2019-04-30T04:18:02.085Z,22.39
2019-04-30T04:19:02.737Z,22.40
2019-04-30T04:20:02.034Z,22.39
2019-04-30T04:21:11.321Z,22.39
2019-04-30T04:22:04.216Z,22.40
2019-04-30T04:23:01.997Z,22.40
2019-04-30T04:24:01.987Z,22.40
2019-04-30T04:25:01.973Z,22.42
2019-04-30T04:26:01.959Z,22.42
2019-04-30T04:27:01.991Z,22.42
2019-04-30T04:28:01.941Z,22.42
2019-04-30T04:29:01.928Z,22.40
2019-04-30T04:30:01.944Z,22.42
2019-04-30T04:31:01.913Z,22.42
2019-04-30T04:32:01.921Z,22.40
2019-04-30T04:33:01.886Z,22.42
2019-04-30T04:34:01.887Z,22.43
2019-04-30T04:35:01.873Z,22.40
2019-04-30T04:36:01.881Z,22.42
2019-04-30T04:37:01.874Z,22.42
2019-04-30T04:38:01.835Z,22.42
2019-04-30T04:39:01.816Z,22.40
2019-04-30T04:40:01.818Z,22.40
2019-04-30T04:41:03.091Z,22.42
2019-04-30T04:42:01.866Z,22.42
2019-04-30T04:43:01.777Z,22.42
2019-04-30T04:44:01.762Z,22.43
2019-04-30T04:45:01.768Z,22.43
2019-04-30T04:46:01.747Z,22.42
2019-04-30T04:47:01.773Z,22.42
2019-04-30T04:48:01.731Z,22.43
2019-04-30T04:49:01.718Z,22.43
2019-04-30T04:50:01.711Z,22.42
2019-04-30T04:51:01.686Z,22.42
2019-04-30T04:52:01.717Z,22.43
2019-04-30T04:53:01.678Z,22.42
2019-04-30T04:54:03.314Z,22.43
2019-04-30T04:55:01.675Z,22.43
2019-04-30T04:56:01.635Z,22.45
2019-04-30T04:57:13.213Z,22.46
2019-04-30T04:58:02.617Z,22.45
2019-04-30T04:59:01.608Z,22.45
2019-04-30T05:00:07.138Z,22.43
2019-04-30T05:01:02.592Z,22.43
2019-04-30T05:02:01.603Z,22.43
2019-04-30T05:03:01.567Z,22.42
2019-04-30T05:04:01.554Z,22.45
2019-04-30T05:05:01.551Z,22.45
2019-04-30T05:06:02.633Z,22.46
2019-04-30T05:07:01.550Z,22.49
2019-04-30T05:08:01.529Z,22.52
2019-04-30T05:09:01.670Z,22.55
2019-04-30T05:10:01.492Z,22.55
2019-04-30T05:11:01.505Z,22.58
2019-04-30T05:12:01.501Z,22.57
2019-04-30T05:13:01.495Z,22.58
2019-04-30T05:14:01.451Z,22.60
2019-04-30T05:15:01.430Z,22.58
2019-04-30T05:16:01.423Z,22.60
2019-04-30T05:17:01.406Z,22.62
2019-04-30T05:18:01.419Z,22.62
2019-04-30T05:19:01.396Z,22.64
2019-04-30T05:20:01.379Z,22.65
2019-04-30T05:21:01.363Z,22.64
2019-04-30T05:22:01.350Z,22.64
2019-04-30T05:23:01.379Z,22.64
2019-04-30T05:24:01.335Z,22.67
2019-04-30T05:25:01.333Z,22.68
2019-04-30T05:26:01.311Z,22.67
2019-04-30T05:27:01.308Z,22.68
2019-04-30T05:28:01.314Z,22.68
2019-04-30T05:29:01.281Z,22.68
2019-04-30T05:30:01.263Z,22.67
2019-04-30T05:31:01.264Z,22.68
2019-04-30T05:32:01.245Z,22.70
2019-04-30T05:33:01.263Z,22.72
2019-04-30T05:34:01.223Z,22.70
2019-04-30T05:35:01.223Z,22.72
2019-04-30T05:36:01.199Z,22.73
2019-04-30T05:37:01.191Z,22.75
2019-04-30T05:38:01.202Z,22.75
2019-04-30T05:39:01.193Z,22.75
2019-04-30T05:40:01.160Z,22.75
2019-04-30T05:41:01.148Z,22.76
2019-04-30T05:42:01.138Z,22.76
2019-04-30T05:43:01.154Z,22.77
2019-04-30T05:44:01.130Z,22.77
2019-04-30T05:45:01.101Z,22.77
2019-04-30T05:46:01.098Z,22.80
2019-04-30T05:47:01.077Z,22.82
2019-04-30T05:48:01.080Z,22.80
2019-04-30T05:49:01.097Z,22.80
2019-04-30T05:50:01.052Z,22.79
2019-04-30T05:51:01.040Z,22.77
2019-04-30T05:52:01.041Z,22.79
2019-04-30T05:53:01.120Z,22.83
2019-04-30T05:54:01.028Z,22.86
2019-04-30T05:55:01.003Z,22.88
2019-04-30T05:56:03.110Z,22.90
2019-04-30T05:57:00.989Z,22.90
2019-04-30T05:58:01.497Z,22.90
2019-04-30T05:59:01.016Z,22.91
2019-04-30T06:00:00.957Z,22.94
2019-04-30T06:01:00.947Z,22.97
2019-04-30T06:02:00.924Z,22.98
2019-04-30T06:03:00.920Z,23.02
2019-04-30T06:04:00.929Z,23.01
2019-04-30T06:05:00.883Z,23.01
2019-04-30T06:06:00.961Z,23.00
2019-04-30T06:07:00.879Z,22.98
2019-04-30T06:08:00.953Z,22.97
2019-04-30T06:09:06.768Z,22.98
2019-04-30T06:10:01.839Z,23.00
2019-04-30T06:11:00.825Z,23.00
2019-04-30T06:12:00.845Z,23.01
2019-04-30T06:13:00.799Z,23.01
2019-04-30T06:14:00.812Z,23.00
2019-04-30T06:15:00.811Z,23.00
2019-04-30T06:16:00.771Z,23.00
2019-04-30T06:17:00.764Z,22.98
2019-04-30T06:18:10.576Z,23.00
2019-04-30T06:19:01.768Z,23.01
2019-04-30T06:20:00.741Z,23.04
2019-04-30T06:21:00.717Z,23.04
2019-04-30T06:22:07.776Z,23.05
2019-04-30T06:23:01.698Z,23.04
2019-04-30T06:24:00.686Z,23.02
2019-04-30T06:25:00.704Z,23.02
2019-04-30T06:26:09.333Z,23.07
2019-04-30T06:27:01.645Z,23.09
2019-04-30T06:28:00.656Z,23.09
2019-04-30T06:29:01.463Z,23.09
2019-04-30T06:30:00.660Z,23.09
2019-04-30T06:31:00.625Z,23.09
2019-04-30T06:32:00.593Z,23.10
2019-04-30T06:33:00.579Z,23.10
2019-04-30T06:34:00.585Z,23.09
2019-04-30T06:35:00.588Z,23.09
2019-04-30T06:36:00.563Z,23.09
2019-04-30T06:37:00.555Z,23.09
2019-04-30T06:38:00.535Z,23.09
2019-04-30T06:39:00.522Z,23.10
2019-04-30T06:40:00.546Z,23.10
2019-04-30T06:41:00.506Z,23.10
2019-04-30T06:42:06.837Z,23.10
2019-04-30T06:43:01.478Z,23.09
2019-04-30T06:44:00.456Z,23.09
2019-04-30T06:45:00.541Z,23.09
2019-04-30T06:46:01.010Z,23.09
2019-04-30T06:47:01.256Z,23.09
2019-04-30T06:48:00.430Z,23.10
2019-04-30T06:49:00.400Z,23.12
2019-04-30T06:50:01.340Z,23.09
2019-04-30T06:51:01.683Z,23.10
2019-04-30T06:52:00.370Z,23.12
2019-04-30T06:53:01.588Z,23.12
2019-04-30T06:54:00.372Z,23.10
2019-04-30T06:55:00.562Z,23.13
2019-04-30T06:56:00.338Z,23.13
2019-04-30T06:57:00.337Z,23.13
2019-04-30T06:58:12.069Z,23.16
2019-04-30T06:59:01.286Z,23.15
2019-04-30T07:00:00.306Z,23.16
2019-04-30T07:01:00.300Z,23.15
2019-04-30T07:02:00.258Z,23.16
2019-04-30T07:03:00.249Z,23.16
2019-04-30T07:04:01.057Z,23.16
2019-04-30T07:05:00.230Z,23.17
2019-04-30T07:06:00.955Z,23.16
2019-04-30T07:07:00.216Z,23.20
2019-04-30T07:08:05.662Z,23.20
2019-04-30T07:09:01.190Z,23.19
2019-04-30T07:10:01.207Z,23.19
2019-04-30T07:11:07.412Z,23.19
2019-04-30T07:12:01.181Z,23.17
2019-04-30T07:13:00.144Z,23.16
2019-04-30T07:14:00.199Z,23.17
2019-04-30T07:15:00.127Z,23.17
2019-04-30T07:16:00.143Z,23.25
2019-04-30T07:17:00.158Z,23.23
2019-04-30T07:18:00.090Z,23.23
2019-04-30T07:19:00.074Z,23.23
2019-04-30T07:20:00.080Z,23.23
2019-04-30T07:21:00.069Z,23.25
2019-04-30T07:22:00.067Z,23.25
2019-04-30T07:24:01.037Z,23.25
2019-04-30T07:25:00.013Z,23.25
2019-04-30T07:26:00.052Z,23.25
2019-04-30T07:27:02.753Z,23.25
2019-04-30T07:27:59.988Z,23.25
2019-04-30T07:29:02.508Z,23.23
2019-04-30T07:29:59.957Z,23.22
2019-04-30T07:31:10.259Z,23.25
2019-04-30T07:32:00.956Z,23.23
2019-04-30T07:32:59.922Z,23.25
2019-04-30T07:33:59.917Z,23.25
2019-04-30T07:34:59.916Z,23.23
2019-04-30T07:36:01.739Z,23.23
2019-04-30T07:37:11.845Z,23.25
2019-04-30T07:38:04.847Z,23.25
2019-04-30T07:39:00.058Z,23.27
2019-04-30T07:39:59.840Z,23.27
2019-04-30T07:40:59.827Z,23.25
2019-04-30T07:42:00.017Z,23.27
2019-04-30T07:42:59.817Z,23.27
2019-04-30T07:43:59.796Z,23.27
2019-04-30T07:45:00.755Z,23.27
2019-04-30T07:45:59.883Z,23.25
2019-04-30T07:47:02.003Z,23.27
2019-04-30T07:47:59.754Z,23.27
2019-04-30T07:49:00.084Z,23.27
2019-04-30T07:50:00.797Z,23.28
2019-04-30T07:50:59.734Z,23.25
2019-04-30T07:52:01.458Z,23.28
2019-04-30T07:53:05.844Z,23.31
2019-04-30T07:54:00.690Z,23.28
2019-04-30T07:55:00.707Z,23.32
2019-04-30T07:55:59.665Z,23.32
2019-04-30T07:57:00.497Z,23.33
2019-04-30T07:57:59.645Z,23.32
2019-04-30T07:59:00.758Z,23.32
2019-04-30T08:00:00.565Z,23.32
2019-04-30T08:00:59.662Z,23.33
2019-04-30T08:02:07.377Z,23.32
2019-04-30T08:03:00.598Z,23.32
2019-04-30T08:03:59.579Z,23.31
2019-04-30T08:04:59.952Z,23.31
2019-04-30T08:06:00.027Z,23.33
2019-04-30T08:06:59.917Z,23.33
2019-04-30T08:08:16.705Z,23.33
2019-04-30T08:09:01.217Z,23.33
2019-04-30T08:09:34.154Z,23.25
2019-04-30T08:09:59.525Z,23.33
2019-04-30T08:10:59.500Z,23.33
2019-04-30T08:11:59.551Z,23.35
2019-04-30T08:13:08.511Z,23.36
2019-04-30T08:14:00.790Z,23.36
2019-04-30T08:14:59.605Z,23.38
2019-04-30T08:15:59.728Z,23.38
2019-04-30T08:16:59.443Z,23.38
2019-04-30T08:18:03.517Z,23.36
2019-04-30T08:19:00.422Z,23.39
2019-04-30T08:19:59.397Z,23.40
2019-04-30T08:21:00.971Z,23.46
2019-04-30T08:21:59.378Z,23.48
2019-04-30T08:23:13.005Z,23.51
2019-04-30T08:24:01.099Z,23.50
2019-04-30T08:24:59.347Z,23.48
2019-04-30T08:25:59.342Z,23.47
2019-04-30T08:27:01.156Z,23.48
2019-04-30T08:27:59.340Z,23.46
2019-04-30T08:28:59.871Z,23.46
2019-04-30T08:29:59.330Z,23.47
2019-04-30T08:30:59.277Z,23.47
2019-04-30T08:31:59.462Z,23.48
2019-04-30T08:32:59.681Z,23.48
2019-04-30T08:33:59.317Z,23.48
2019-04-30T08:35:01.137Z,23.51
2019-04-30T08:36:01.001Z,23.50
2019-04-30T08:36:59.511Z,23.51
2019-04-30T08:37:59.225Z,23.54
2019-04-30T08:38:59.704Z,23.55
2019-04-30T08:40:00.215Z,23.55
2019-04-30T08:41:00.843Z,23.55
2019-04-30T08:42:00.018Z,23.57
2019-04-30T08:42:59.564Z,23.58
2019-04-30T08:43:59.833Z,23.58
2019-04-30T08:44:59.137Z,23.60
2019-04-30T08:45:59.545Z,23.61
2019-04-30T08:46:59.177Z,23.65
2019-04-30T08:47:59.151Z,23.68
2019-04-30T08:48:59.107Z,23.65
2019-04-30T08:50:02.365Z,23.65
2019-04-30T08:50:59.594Z,23.65
2019-04-30T08:51:59.052Z,23.66
2019-04-30T08:53:00.039Z,23.66
2019-04-30T08:53:59.038Z,23.76
2019-04-30T08:55:12.999Z,24.02
2019-04-30T08:56:00.007Z,23.95
2019-04-30T08:56:59.530Z,23.93
2019-04-30T08:58:09.369Z,23.93
2019-04-30T08:59:00.010Z,24.12
2019-04-30T08:59:58.954Z,24.60
2019-04-30T09:00:58.945Z,25.03
2019-04-30T09:02:12.541Z,24.98
2019-04-30T09:02:59.961Z,24.57
2019-04-30T09:03:59.713Z,24.60
2019-04-30T09:05:00.523Z,25.09
2019-04-30T09:05:59.039Z,25.10
2019-04-30T09:06:59.959Z,24.76
2019-04-30T09:07:59.816Z,25.06
2019-04-30T09:08:59.321Z,25.00
2019-04-30T09:10:01.219Z,24.93
2019-04-30T09:10:59.575Z,24.69
2019-04-30T09:11:59.305Z,24.55
2019-04-30T09:12:59.771Z,24.39
2019-04-30T09:13:58.830Z,24.32
2019-04-30T09:14:59.174Z,24.31
2019-04-30T09:15:59.378Z,24.31
2019-04-30T09:16:59.612Z,24.31
2019-04-30T09:18:03.840Z,24.31
2019-04-30T09:18:59.773Z,24.35
2019-04-30T09:19:59.026Z,24.35
2019-04-30T09:21:05.952Z,24.35
2019-04-30T09:21:59.717Z,24.37
2019-04-30T09:22:59.554Z,24.39
2019-04-30T09:23:59.438Z,24.37
2019-04-30T09:24:59.237Z,24.37
2019-04-30T09:25:58.702Z,24.35
2019-04-30T09:26:59.143Z,24.30
2019-04-30T09:27:58.936Z,24.24
2019-04-30T09:28:59.294Z,24.21
2019-04-30T09:29:58.851Z,24.20
2019-04-30T09:30:58.807Z,24.15
2019-04-30T09:31:59.401Z,24.15
2019-04-30T09:32:59.491Z,24.15
2019-04-30T09:34:00.827Z,24.18
2019-04-30T09:34:58.810Z,24.22
2019-04-30T09:35:59.524Z,24.28
2019-04-30T09:36:59.021Z,24.32
2019-04-30T09:38:01.423Z,24.42
2019-04-30T09:39:01.338Z,24.43
2019-04-30T09:39:59.200Z,24.43
2019-04-30T09:40:59.401Z,24.47
2019-04-30T09:41:59.563Z,24.45
2019-04-30T09:42:58.805Z,24.45
2019-04-30T09:43:59.749Z,24.49
2019-04-30T09:44:59.618Z,24.45
2019-04-30T09:45:59.300Z,24.34
2019-04-30T09:46:58.904Z,24.31
2019-04-30T09:47:59.272Z,24.25
2019-04-30T09:48:59.769Z,24.27
2019-04-30T09:49:59.589Z,24.18
2019-04-30T09:51:00.473Z,24.16
2019-04-30T09:51:59.367Z,24.18
2019-04-30T09:53:00.316Z,24.20
2019-04-30T09:54:00.533Z,24.20
2019-04-30T09:54:59.445Z,24.24
2019-04-30T09:55:59.603Z,24.24
2019-04-30T09:56:59.015Z,24.21
2019-04-30T09:57:58.859Z,24.20
2019-04-30T09:58:59.255Z,24.13
2019-04-30T09:59:58.329Z,24.13
2019-04-30T10:00:59.367Z,24.13
2019-04-30T10:01:58.284Z,24.18
2019-04-30T10:02:59.942Z,24.21
2019-04-30T10:04:00.282Z,24.22
2019-04-30T10:04:58.676Z,24.25
2019-04-30T10:05:59.089Z,24.30
2019-04-30T10:06:59.588Z,24.30
2019-04-30T10:07:59.407Z,24.32
2019-04-30T10:08:59.676Z,24.32
2019-04-30T10:09:59.099Z,24.34
2019-04-30T10:10:58.801Z,24.35
2019-04-30T10:11:59.587Z,24.40
2019-04-30T10:12:59.285Z,24.55
2019-04-30T10:13:58.146Z,24.60
2019-04-30T10:14:59.263Z,24.61
2019-04-30T10:15:58.556Z,24.57
2019-04-30T10:16:59.519Z,24.67
2019-04-30T10:17:58.093Z,24.68
2019-04-30T10:18:59.245Z,24.68
2019-04-30T10:19:58.082Z,24.76
2019-04-30T10:20:58.887Z,24.69
2019-04-30T10:21:58.963Z,24.62
2019-04-30T10:22:59.619Z,24.60
2019-04-30T10:24:10.438Z,24.60
2019-04-30T10:24:59.671Z,24.61
2019-04-30T10:25:58.051Z,24.58
2019-04-30T10:26:58.006Z,24.57
2019-04-30T10:27:59.786Z,24.62
2019-04-30T10:28:57.992Z,24.67
2019-04-30T10:29:59.384Z,24.76
2019-04-30T10:30:57.966Z,24.81
2019-04-30T10:31:58.766Z,24.83
2019-04-30T10:33:28.563Z,24.99
2019-04-30T10:34:26.378Z,25.09
2019-04-30T10:35:28.460Z,25.15
2019-04-30T10:36:26.370Z,25.23
2019-04-30T10:37:26.329Z,25.24
2019-04-30T10:38:26.333Z,25.28
2019-04-30T10:39:26.297Z,25.30
2019-04-30T10:40:26.306Z,25.35
2019-04-30T10:41:26.302Z,25.35
2019-04-30T10:42:26.252Z,25.32
2019-04-30T10:43:26.230Z,25.28
2019-04-30T10:44:26.209Z,25.23
2019-04-30T10:45:26.177Z,25.21
2019-04-30T10:46:26.185Z,25.17
2019-04-30T10:47:26.175Z,25.14
2019-04-30T10:48:26.124Z,25.13
2019-04-30T10:49:26.163Z,25.05
2019-04-30T10:50:26.101Z,25.02
2019-04-30T10:51:26.072Z,25.05
2019-04-30T10:52:26.071Z,25.08
2019-04-30T10:53:26.042Z,25.05
2019-04-30T10:54:26.542Z,25.08
2019-04-30T10:55:26.002Z,25.10
2019-04-30T10:56:26.749Z,25.18
2019-04-30T10:57:28.393Z,25.15
2019-04-30T10:58:26.696Z,25.00
2019-04-30T10:59:26.675Z,24.90
2019-04-30T11:00:28.296Z,24.83
2019-04-30T11:01:26.651Z,24.80
2019-04-30T11:02:28.737Z,24.77
2019-04-30T11:03:26.622Z,24.76
2019-04-30T11:04:26.611Z,24.73
2019-04-30T11:05:26.602Z,24.80
2019-04-30T11:06:26.586Z,24.84
2019-04-30T11:07:28.692Z,24.88
2019-04-30T11:08:26.569Z,24.90
2019-04-30T11:09:26.553Z,24.93
2019-04-30T11:10:26.545Z,24.95
2019-04-30T11:11:28.294Z,24.88
2019-04-30T11:12:26.542Z,24.90
2019-04-30T11:13:26.532Z,24.91
2019-04-30T11:14:26.510Z,24.93
2019-04-30T11:15:26.523Z,24.98
2019-04-30T11:16:26.488Z,24.95
2019-04-30T11:17:26.733Z,24.91
2019-04-30T11:18:26.633Z,24.91
2019-04-30T11:19:26.627Z,24.88
2019-04-30T11:20:26.683Z,24.78
2019-04-30T11:21:26.617Z,24.71
2019-04-30T11:22:26.617Z,24.68
2019-04-30T11:23:26.530Z,24.73
2019-04-30T11:24:35.905Z,24.83
2019-04-30T11:25:28.693Z,24.91
2019-04-30T11:26:26.685Z,25.02
2019-04-30T11:27:26.900Z,25.05
2019-04-30T11:28:27.087Z,25.14
2019-04-30T11:29:26.580Z,25.21
2019-04-30T11:30:26.669Z,25.17
2019-04-30T11:31:26.552Z,25.13
2019-04-30T11:32:26.451Z,25.09
2019-04-30T11:33:26.487Z,25.10
2019-04-30T11:34:28.156Z,25.14
2019-04-30T11:35:26.288Z,25.14
2019-04-30T11:36:26.302Z,25.13
2019-04-30T11:37:26.330Z,25.10
2019-04-30T11:38:26.263Z,25.10
2019-04-30T11:39:26.245Z,25.08
2019-04-30T11:40:34.281Z,25.08
2019-04-30T11:41:30.880Z,25.09
2019-04-30T11:42:27.235Z,25.08
2019-04-30T11:43:26.199Z,25.06
2019-04-30T11:44:30.893Z,25.06
2019-04-30T11:45:27.192Z,25.13
2019-04-30T11:46:26.175Z,25.18
2019-04-30T11:47:26.166Z,25.23
2019-04-30T11:48:26.180Z,25.23
2019-04-30T11:49:26.143Z,25.21
2019-04-30T11:50:26.132Z,25.18
2019-04-30T11:51:27.079Z,25.18
2019-04-30T11:52:26.120Z,25.20
2019-04-30T11:53:28.797Z,25.21
2019-04-30T11:54:26.103Z,25.25
2019-04-30T11:55:26.082Z,25.28
2019-04-30T11:56:26.065Z,25.28
2019-04-30T11:57:26.047Z,25.33
2019-04-30T11:58:26.081Z,25.39
2019-04-30T11:59:26.091Z,25.43
2019-04-30T12:00:26.019Z,25.45
2019-04-30T12:01:26.152Z,25.47
2019-04-30T12:02:26.002Z,25.39
2019-04-30T12:03:25.989Z,25.36
2019-04-30T12:04:26.010Z,25.33
2019-04-30T12:05:25.985Z,25.32
2019-04-30T12:06:25.973Z,25.32
2019-04-30T12:07:25.951Z,25.35
2019-04-30T12:08:26.595Z,25.40
2019-04-30T12:09:25.965Z,25.39
2019-04-30T12:10:25.935Z,25.30
2019-04-30T12:11:25.924Z,25.24
2019-04-30T12:12:25.909Z,25.25
2019-04-30T12:13:25.892Z,25.25
2019-04-30T12:14:25.876Z,25.23
2019-04-30T12:15:25.898Z,25.17
2019-04-30T12:16:25.862Z,25.13
2019-04-30T12:17:25.851Z,25.10
2019-04-30T12:18:25.850Z,25.08
2019-04-30T12:19:25.842Z,25.05
2019-04-30T12:20:25.833Z,25.06
2019-04-30T12:21:25.809Z,25.06
2019-04-30T12:22:25.815Z,25.08
2019-04-30T12:23:25.782Z,25.14
2019-04-30T12:24:25.806Z,25.21
2019-04-30T12:25:25.803Z,25.27
2019-04-30T12:26:25.766Z,25.35
2019-04-30T12:27:25.741Z,25.40
2019-04-30T12:28:27.289Z,25.45
2019-04-30T12:29:25.721Z,25.40
2019-04-30T12:30:25.729Z,25.42
2019-04-30T12:31:25.717Z,25.43
2019-04-30T12:32:25.691Z,25.45
2019-04-30T12:33:25.686Z,25.46
2019-04-30T12:34:25.673Z,25.46
2019-04-30T12:35:25.686Z,25.50
2019-04-30T12:36:25.656Z,25.52
2019-04-30T12:37:25.655Z,25.58
2019-04-30T12:38:25.632Z,25.72
2019-04-30T12:39:25.646Z,25.67
2019-04-30T12:40:29.258Z,25.69
2019-04-30T12:41:26.617Z,25.61
2019-04-30T12:42:25.761Z,25.72
2019-04-30T12:43:25.576Z,25.75
2019-04-30T12:44:25.589Z,25.70
2019-04-30T12:45:25.560Z,25.70
2019-04-30T12:46:25.571Z,25.62
2019-04-30T12:47:25.545Z,25.65
2019-04-30T12:48:25.533Z,25.62
2019-04-30T12:49:25.513Z,25.69
2019-04-30T12:50:25.527Z,25.72
2019-04-30T12:51:25.532Z,25.73
2019-04-30T12:52:25.483Z,25.75